sensor_id;sensor_type;location;lat;lon;timestamp;P1;durP1;ratioP1;P2;durP2;ratioP2
29568;SDS011;16501;51.462;14.346;2023-01-29T00:01:43;11.68;;;6.80;;
29568;SDS011;16501;51.462;14.346;2023-01-29T00:04:08;13.38;;;7.38;;
29568;SDS011;16501;51.462;14.346;2023-01-29T00:06:34;13.65;;;7.13;;
29568;SDS011;16501;51.462;14.346;2023-01-29T00:08:59;14.25;;;6.55;;
29568;SDS011;16501;51.462;14.346;2023-01-29T00:11:25;16.27;;;7.63;;
29568;SDS011;16501;51.462;14.346;2023-01-29T00:13:52;15.90;;;7.60;;
29568;SDS011;16501;51.462;14.346;2023-01-29T00:16:19;13.10;;;6.50;;
29568;SDS011;16501;51.462;14.346;2023-01-29T00:18:44;14.25;;;7.00;;
29568;SDS011;16501;51.462;14.346;2023-01-29T00:21:10;11.75;;;6.43;;
29568;SDS011;16501;51.462;14.346;2023-01-29T00:23:39;12.85;;;7.10;;
29568;SDS011;16501;51.462;14.346;2023-01-29T00:26:05;15.43;;;6.60;;
29568;SDS011;16501;51.462;14.346;2023-01-29T00:28:31;17.30;;;7.18;;
29568;SDS011;16501;51.462;14.346;2023-01-29T00:30:57;15.45;;;6.53;;
29568;SDS011;16501;51.462;14.346;2023-01-29T00:33:24;11.77;;;6.38;;
29568;SDS011;16501;51.462;14.346;2023-01-29T00:35:51;12.73;;;6.63;;
29568;SDS011;16501;51.462;14.346;2023-01-29T00:38:16;10.38;;;5.55;;
29568;SDS011;16501;51.462;14.346;2023-01-29T00:40:43;15.48;;;7.28;;
29568;SDS011;16501;51.462;14.346;2023-01-29T00:43:27;14.00;;;6.65;;
29568;SDS011;16501;51.462;14.346;2023-01-29T00:46:11;14.48;;;6.97;;
29568;SDS011;16501;51.462;14.346;2023-01-29T00:48:37;10.07;;;6.00;;
29568;SDS011;16501;51.462;14.346;2023-01-29T00:51:03;12.73;;;7.15;;
29568;SDS011;16501;51.462;14.346;2023-01-29T00:53:29;14.85;;;6.80;;
29568;SDS011;16501;51.462;14.346;2023-01-29T00:55:55;11.75;;;6.53;;
29568;SDS011;16501;51.462;14.346;2023-01-29T00:58:20;13.18;;;6.75;;
29568;SDS011;16501;51.462;14.346;2023-01-29T01:00:48;13.68;;;7.05;;
29568;SDS011;16501;51.462;14.346;2023-01-29T01:03:13;13.73;;;6.10;;
29568;SDS011;16501;51.462;14.346;2023-01-29T01:05:39;11.80;;;6.32;;
29568;SDS011;16501;51.462;14.346;2023-01-29T01:08:06;12.82;;;6.70;;
29568;SDS011;16501;51.462;14.346;2023-01-29T01:10:57;14.95;;;6.55;;
29568;SDS011;16501;51.462;14.346;2023-01-29T01:13:23;13.07;;;6.73;;
29568;SDS011;16501;51.462;14.346;2023-01-29T01:15:48;10.05;;;6.13;;
29568;SDS011;16501;51.462;14.346;2023-01-29T01:18:13;13.23;;;6.50;;
29568;SDS011;16501;51.462;14.346;2023-01-29T01:20:40;15.00;;;6.45;;
29568;SDS011;16501;51.462;14.346;2023-01-29T01:23:05;10.18;;;6.13;;
29568;SDS011;16501;51.462;14.346;2023-01-29T01:25:31;14.02;;;6.25;;
29568;SDS011;16501;51.462;14.346;2023-01-29T01:27:57;14.20;;;6.43;;
29568;SDS011;16501;51.462;14.346;2023-01-29T01:30:24;11.43;;;5.88;;
29568;SDS011;16501;51.462;14.346;2023-01-29T01:32:51;12.25;;;6.03;;
29568;SDS011;16501;51.462;14.346;2023-01-29T01:35:16;13.10;;;6.35;;
29568;SDS011;16501;51.462;14.346;2023-01-29T01:37:42;9.35;;;6.05;;
29568;SDS011;16501;51.462;14.346;2023-01-29T01:40:11;11.57;;;5.95;;
29568;SDS011;16501;51.462;14.346;2023-01-29T01:42:41;9.77;;;5.93;;
29568;SDS011;16501;51.462;14.346;2023-01-29T01:45:18;8.77;;;5.63;;
29568;SDS011;16501;51.462;14.346;2023-01-29T01:50:34;9.65;;;5.55;;
29568;SDS011;16501;51.462;14.346;2023-01-29T01:53:02;8.90;;;5.25;;
29568;SDS011;16501;51.462;14.346;2023-01-29T01:55:32;9.90;;;5.50;;
29568;SDS011;16501;51.462;14.346;2023-01-29T01:58:02;8.43;;;4.97;;
29568;SDS011;16501;51.462;14.346;2023-01-29T02:00:33;12.18;;;5.10;;
29568;SDS011;16501;51.462;14.346;2023-01-29T02:02:58;10.55;;;4.88;;
29568;SDS011;16501;51.462;14.346;2023-01-29T02:05:44;9.65;;;5.53;;
29568;SDS011;16501;51.462;14.346;2023-01-29T02:11:37;9.93;;;5.00;;
29568;SDS011;16501;51.462;14.346;2023-01-29T02:14:03;9.73;;;4.72;;
29568;SDS011;16501;51.462;14.346;2023-01-29T02:16:30;7.68;;;4.65;;
29568;SDS011;16501;51.462;14.346;2023-01-29T02:18:59;12.30;;;5.07;;
29568;SDS011;16501;51.462;14.346;2023-01-29T02:21:41;10.82;;;5.45;;
29568;SDS011;16501;51.462;14.346;2023-01-29T02:27:14;10.27;;;5.97;;
29568;SDS011;16501;51.462;14.346;2023-01-29T02:33:28;9.45;;;5.35;;
29568;SDS011;16501;51.462;14.346;2023-01-29T02:36:11;9.38;;;5.15;;
29568;SDS011;16501;51.462;14.346;2023-01-29T02:38:49;8.75;;;4.82;;
29568;SDS011;16501;51.462;14.346;2023-01-29T02:41:25;8.95;;;5.05;;
29568;SDS011;16501;51.462;14.346;2023-01-29T02:44:02;10.25;;;4.75;;
29568;SDS011;16501;51.462;14.346;2023-01-29T02:51:45;8.73;;;4.38;;
29568;SDS011;16501;51.462;14.346;2023-01-29T02:54:37;10.50;;;4.45;;
29568;SDS011;16501;51.462;14.346;2023-01-29T02:57:29;6.95;;;4.07;;
29568;SDS011;16501;51.462;14.346;2023-01-29T03:00:07;8.73;;;4.25;;
29568;SDS011;16501;51.462;14.346;2023-01-29T03:02:45;5.03;;;3.55;;
29568;SDS011;16501;51.462;14.346;2023-01-29T03:05:17;5.45;;;4.25;;
29568;SDS011;16501;51.462;14.346;2023-01-29T03:07:49;6.80;;;4.03;;
29568;SDS011;16501;51.462;14.346;2023-01-29T03:10:21;7.37;;;4.33;;
29568;SDS011;16501;51.462;14.346;2023-01-29T03:12:53;9.70;;;5.22;;
29568;SDS011;16501;51.462;14.346;2023-01-29T03:15:45;6.40;;;4.35;;
29568;SDS011;16501;51.462;14.346;2023-01-29T03:18:20;9.70;;;4.93;;
29568;SDS011;16501;51.462;14.346;2023-01-29T03:20:53;8.65;;;4.18;;
29568;SDS011;16501;51.462;14.346;2023-01-29T03:23:25;7.53;;;4.28;;
29568;SDS011;16501;51.462;14.346;2023-01-29T03:26:12;12.02;;;4.57;;
29568;SDS011;16501;51.462;14.346;2023-01-29T03:28:59;6.75;;;4.18;;
29568;SDS011;16501;51.462;14.346;2023-01-29T03:31:46;8.90;;;4.05;;
29568;SDS011;16501;51.462;14.346;2023-01-29T03:34:38;6.78;;;4.20;;
29568;SDS011;16501;51.462;14.346;2023-01-29T03:37:09;7.03;;;4.22;;
29568;SDS011;16501;51.462;14.346;2023-01-29T03:39:39;8.90;;;4.53;;
29568;SDS011;16501;51.462;14.346;2023-01-29T03:42:12;9.45;;;4.32;;
29568;SDS011;16501;51.462;14.346;2023-01-29T03:50:35;6.15;;;4.18;;
29568;SDS011;16501;51.462;14.346;2023-01-29T03:55:52;5.50;;;4.10;;
29568;SDS011;16501;51.462;14.346;2023-01-29T04:01:17;14.55;;;4.78;;
29568;SDS011;16501;51.462;14.346;2023-01-29T04:03:55;8.38;;;4.95;;
29568;SDS011;16501;51.462;14.346;2023-01-29T04:06:26;11.05;;;5.63;;
29568;SDS011;16501;51.462;14.346;2023-01-29T04:11:28;7.80;;;5.03;;
29568;SDS011;16501;51.462;14.346;2023-01-29T04:13:55;8.57;;;4.85;;
29568;SDS011;16501;51.462;14.346;2023-01-29T04:16:25;9.68;;;5.53;;
29568;SDS011;16501;51.462;14.346;2023-01-29T04:18:53;7.72;;;5.18;;
29568;SDS011;16501;51.462;14.346;2023-01-29T04:21:19;6.95;;;4.43;;
29568;SDS011;16501;51.462;14.346;2023-01-29T04:23:45;10.07;;;6.00;;
29568;SDS011;16501;51.462;14.346;2023-01-29T04:28:58;7.95;;;5.47;;
29568;SDS011;16501;51.462;14.346;2023-01-29T04:32:09;14.68;;;6.20;;
29568;SDS011;16501;51.462;14.346;2023-01-29T04:34:49;10.13;;;6.72;;
29568;SDS011;16501;51.462;14.346;2023-01-29T04:43:54;9.40;;;6.50;;
29568;SDS011;16501;51.462;14.346;2023-01-29T04:47:13;9.68;;;6.65;;
29568;SDS011;16501;51.462;14.346;2023-01-29T04:52:16;11.48;;;5.60;;
29568;SDS011;16501;51.462;14.346;2023-01-29T04:57:33;10.68;;;7.10;;
29568;SDS011;16501;51.462;14.346;2023-01-29T05:00:19;12.60;;;6.97;;
29568;SDS011;16501;51.462;14.346;2023-01-29T05:02:51;12.68;;;7.45;;
29568;SDS011;16501;51.462;14.346;2023-01-29T05:05:19;10.20;;;7.05;;
29568;SDS011;16501;51.462;14.346;2023-01-29T05:07:45;11.25;;;6.75;;
29568;SDS011;16501;51.462;14.346;2023-01-29T05:10:12;11.60;;;6.07;;
29568;SDS011;16501;51.462;14.346;2023-01-29T05:12:42;12.48;;;6.85;;
29568;SDS011;16501;51.462;14.346;2023-01-29T05:15:11;14.40;;;7.28;;
29568;SDS011;16501;51.462;14.346;2023-01-29T05:17:41;13.05;;;7.55;;
29568;SDS011;16501;51.462;14.346;2023-01-29T05:20:06;16.48;;;7.30;;
29568;SDS011;16501;51.462;14.346;2023-01-29T05:22:35;12.43;;;7.28;;
29568;SDS011;16501;51.462;14.346;2023-01-29T05:25:03;12.77;;;7.25;;
29568;SDS011;16501;51.462;14.346;2023-01-29T05:28:13;14.77;;;7.57;;
29568;SDS011;16501;51.462;14.346;2023-01-29T05:30:45;10.85;;;6.78;;
29568;SDS011;16501;51.462;14.346;2023-01-29T05:35:40;11.98;;;6.50;;
29568;SDS011;16501;51.462;14.346;2023-01-29T05:38:06;14.80;;;6.75;;
29568;SDS011;16501;51.462;14.346;2023-01-29T05:40:33;13.85;;;6.97;;
29568;SDS011;16501;51.462;14.346;2023-01-29T05:42:58;12.73;;;7.57;;
29568;SDS011;16501;51.462;14.346;2023-01-29T05:45:24;14.95;;;7.35;;
29568;SDS011;16501;51.462;14.346;2023-01-29T05:47:50;9.35;;;6.50;;
29568;SDS011;16501;51.462;14.346;2023-01-29T05:50:19;13.80;;;7.25;;
29568;SDS011;16501;51.462;14.346;2023-01-29T05:52:45;14.77;;;6.57;;
29568;SDS011;16501;51.462;14.346;2023-01-29T05:55:10;12.63;;;7.20;;
29568;SDS011;16501;51.462;14.346;2023-01-29T05:57:35;10.77;;;7.03;;
29568;SDS011;16501;51.462;14.346;2023-01-29T06:00:03;12.10;;;6.78;;
29568;SDS011;16501;51.462;14.346;2023-01-29T06:02:29;11.32;;;7.38;;
29568;SDS011;16501;51.462;14.346;2023-01-29T06:04:55;12.57;;;7.38;;
29568;SDS011;16501;51.462;14.346;2023-01-29T06:07:20;12.65;;;6.80;;
29568;SDS011;16501;51.462;14.346;2023-01-29T06:09:46;10.25;;;5.88;;
29568;SDS011;16501;51.462;14.346;2023-01-29T06:12:11;13.02;;;7.32;;
29568;SDS011;16501;51.462;14.346;2023-01-29T06:14:36;11.20;;;6.32;;
29568;SDS011;16501;51.462;14.346;2023-01-29T06:17:02;11.75;;;6.90;;
29568;SDS011;16501;51.462;14.346;2023-01-29T06:19:27;10.63;;;6.50;;
29568;SDS011;16501;51.462;14.346;2023-01-29T06:21:52;13.13;;;6.80;;
29568;SDS011;16501;51.462;14.346;2023-01-29T06:24:18;11.23;;;6.35;;
29568;SDS011;16501;51.462;14.346;2023-01-29T06:26:44;14.77;;;7.85;;
29568;SDS011;16501;51.462;14.346;2023-01-29T06:29:11;10.85;;;6.78;;
29568;SDS011;16501;51.462;14.346;2023-01-29T06:31:36;15.27;;;8.40;;
29568;SDS011;16501;51.462;14.346;2023-01-29T06:34:02;13.25;;;7.93;;
29568;SDS011;16501;51.462;14.346;2023-01-29T06:36:28;13.30;;;7.00;;
29568;SDS011;16501;51.462;14.346;2023-01-29T06:38:55;12.75;;;7.20;;
29568;SDS011;16501;51.462;14.346;2023-01-29T06:41:20;13.65;;;6.28;;
29568;SDS011;16501;51.462;14.346;2023-01-29T06:43:50;13.65;;;7.43;;
29568;SDS011;16501;51.462;14.346;2023-01-29T06:46:16;11.10;;;7.15;;
29568;SDS011;16501;51.462;14.346;2023-01-29T06:48:41;15.98;;;7.35;;
29568;SDS011;16501;51.462;14.346;2023-01-29T06:51:08;11.50;;;7.85;;
29568;SDS011;16501;51.462;14.346;2023-01-29T06:53:35;12.07;;;7.03;;
29568;SDS011;16501;51.462;14.346;2023-01-29T06:56:02;12.27;;;7.53;;
29568;SDS011;16501;51.462;14.346;2023-01-29T06:58:28;15.68;;;7.75;;
29568;SDS011;16501;51.462;14.346;2023-01-29T07:01:01;15.13;;;7.30;;
29568;SDS011;16501;51.462;14.346;2023-01-29T07:03:30;17.52;;;8.02;;
29568;SDS011;16501;51.462;14.346;2023-01-29T07:05:57;12.75;;;7.90;;
29568;SDS011;16501;51.462;14.346;2023-01-29T07:08:22;15.15;;;7.22;;
29568;SDS011;16501;51.462;14.346;2023-01-29T07:10:48;15.88;;;8.63;;
29568;SDS011;16501;51.462;14.346;2023-01-29T07:13:14;14.02;;;8.32;;
29568;SDS011;16501;51.462;14.346;2023-01-29T07:15:41;12.57;;;7.45;;
29568;SDS011;16501;51.462;14.346;2023-01-29T07:18:08;12.15;;;7.28;;
29568;SDS011;16501;51.462;14.346;2023-01-29T07:20:37;20.17;;;9.20;;
29568;SDS011;16501;51.462;14.346;2023-01-29T07:23:03;11.50;;;7.07;;
29568;SDS011;16501;51.462;14.346;2023-01-29T07:25:28;12.40;;;7.15;;
29568;SDS011;16501;51.462;14.346;2023-01-29T07:27:58;15.00;;;8.18;;
29568;SDS011;16501;51.462;14.346;2023-01-29T07:30:24;20.65;;;11.57;;
29568;SDS011;16501;51.462;14.346;2023-01-29T07:32:49;20.85;;;9.80;;
29568;SDS011;16501;51.462;14.346;2023-01-29T07:35:15;22.05;;;11.65;;
29568;SDS011;16501;51.462;14.346;2023-01-29T07:37:40;13.98;;;9.02;;
29568;SDS011;16501;51.462;14.346;2023-01-29T07:40:05;18.27;;;10.00;;
29568;SDS011;16501;51.462;14.346;2023-01-29T07:42:35;43.70;;;20.20;;
29568;SDS011;16501;51.462;14.346;2023-01-29T07:45:01;24.20;;;11.27;;
29568;SDS011;16501;51.462;14.346;2023-01-29T07:47:28;15.35;;;8.43;;
29568;SDS011;16501;51.462;14.346;2023-01-29T07:49:53;14.32;;;8.38;;
29568;SDS011;16501;51.462;14.346;2023-01-29T07:52:18;16.20;;;9.55;;
29568;SDS011;16501;51.462;14.346;2023-01-29T07:54:45;14.23;;;8.85;;
29568;SDS011;16501;51.462;14.346;2023-01-29T07:57:10;14.27;;;8.63;;
29568;SDS011;16501;51.462;14.346;2023-01-29T07:59:36;12.20;;;7.80;;
29568;SDS011;16501;51.462;14.346;2023-01-29T08:02:01;14.68;;;8.38;;
29568;SDS011;16501;51.462;14.346;2023-01-29T08:04:27;12.23;;;8.07;;
29568;SDS011;16501;51.462;14.346;2023-01-29T08:06:53;15.07;;;8.20;;
29568;SDS011;16501;51.462;14.346;2023-01-29T08:09:18;13.43;;;8.07;;
29568;SDS011;16501;51.462;14.346;2023-01-29T08:11:43;13.95;;;8.32;;
29568;SDS011;16501;51.462;14.346;2023-01-29T08:14:08;15.57;;;7.85;;
29568;SDS011;16501;51.462;14.346;2023-01-29T08:16:34;12.82;;;8.32;;
29568;SDS011;16501;51.462;14.346;2023-01-29T08:19:03;20.23;;;8.40;;
29568;SDS011;16501;51.462;14.346;2023-01-29T08:21:28;16.45;;;8.60;;
29568;SDS011;16501;51.462;14.346;2023-01-29T08:23:53;16.23;;;9.15;;
29568;SDS011;16501;51.462;14.346;2023-01-29T08:26:18;15.85;;;8.13;;
29568;SDS011;16501;51.462;14.346;2023-01-29T08:28:44;15.20;;;7.93;;
29568;SDS011;16501;51.462;14.346;2023-01-29T08:31:13;13.30;;;8.38;;
29568;SDS011;16501;51.462;14.346;2023-01-29T08:33:39;15.27;;;8.45;;
29568;SDS011;16501;51.462;14.346;2023-01-29T08:36:07;18.27;;;8.73;;
29568;SDS011;16501;51.462;14.346;2023-01-29T08:38:33;13.52;;;8.27;;
29568;SDS011;16501;51.462;14.346;2023-01-29T08:40:58;13.48;;;7.75;;
29568;SDS011;16501;51.462;14.346;2023-01-29T08:43:24;15.43;;;7.53;;
29568;SDS011;16501;51.462;14.346;2023-01-29T08:45:50;13.82;;;7.68;;
29568;SDS011;16501;51.462;14.346;2023-01-29T08:48:15;12.60;;;8.65;;
29568;SDS011;16501;51.462;14.346;2023-01-29T08:50:42;12.55;;;7.95;;
29568;SDS011;16501;51.462;14.346;2023-01-29T08:53:08;15.02;;;8.07;;
29568;SDS011;16501;51.462;14.346;2023-01-29T08:55:34;15.80;;;7.47;;
29568;SDS011;16501;51.462;14.346;2023-01-29T08:58:02;17.00;;;8.35;;
29568;SDS011;16501;51.462;14.346;2023-01-29T09:00:28;15.85;;;8.05;;
29568;SDS011;16501;51.462;14.346;2023-01-29T09:02:53;20.10;;;8.25;;
29568;SDS011;16501;51.462;14.346;2023-01-29T09:05:20;14.57;;;8.30;;
29568;SDS011;16501;51.462;14.346;2023-01-29T09:07:45;12.07;;;7.57;;
29568;SDS011;16501;51.462;14.346;2023-01-29T09:10:10;19.33;;;7.97;;
29568;SDS011;16501;51.462;14.346;2023-01-29T09:12:36;13.77;;;8.15;;
29568;SDS011;16501;51.462;14.346;2023-01-29T09:15:01;14.00;;;8.02;;
29568;SDS011;16501;51.462;14.346;2023-01-29T09:17:28;14.00;;;7.45;;
29568;SDS011;16501;51.462;14.346;2023-01-29T09:19:53;18.40;;;8.45;;
29568;SDS011;16501;51.462;14.346;2023-01-29T09:22:20;14.73;;;7.82;;
29568;SDS011;16501;51.462;14.346;2023-01-29T09:24:45;19.38;;;8.50;;
29568;SDS011;16501;51.462;14.346;2023-01-29T09:27:11;21.77;;;10.55;;
29568;SDS011;16501;51.462;14.346;2023-01-29T09:29:37;16.38;;;9.27;;
29568;SDS011;16501;51.462;14.346;2023-01-29T09:32:03;39.10;;;16.52;;
29568;SDS011;16501;51.462;14.346;2023-01-29T09:34:30;31.75;;;14.00;;
29568;SDS011;16501;51.462;14.346;2023-01-29T09:36:55;55.13;;;23.08;;
29568;SDS011;16501;51.462;14.346;2023-01-29T09:39:21;31.95;;;16.30;;
29568;SDS011;16501;51.462;14.346;2023-01-29T09:46:53;85.43;;;34.25;;
29568;SDS011;16501;51.462;14.346;2023-01-29T09:49:25;77.43;;;34.17;;
29568;SDS011;16501;51.462;14.346;2023-01-29T09:51:57;52.15;;;25.92;;
29568;SDS011;16501;51.462;14.346;2023-01-29T09:54:30;39.90;;;22.97;;
29568;SDS011;16501;51.462;14.346;2023-01-29T09:57:00;18.48;;;11.80;;
29568;SDS011;16501;51.462;14.346;2023-01-29T09:59:26;16.15;;;9.25;;
29568;SDS011;16501;51.462;14.346;2023-01-29T10:10:31;16.70;;;8.82;;
29568;SDS011;16501;51.462;14.346;2023-01-29T10:13:17;17.13;;;8.65;;
29568;SDS011;16501;51.462;14.346;2023-01-29T10:16:03;16.25;;;9.20;;
29568;SDS011;16501;51.462;14.346;2023-01-29T10:21:50;15.82;;;9.90;;
29568;SDS011;16501;51.462;14.346;2023-01-29T10:24:37;19.55;;;9.27;;
29568;SDS011;16501;51.462;14.346;2023-01-29T10:27:17;21.83;;;9.75;;
29568;SDS011;16501;51.462;14.346;2023-01-29T10:29:43;16.85;;;10.05;;
29568;SDS011;16501;51.462;14.346;2023-01-29T10:32:13;14.85;;;9.10;;
29568;SDS011;16501;51.462;14.346;2023-01-29T10:34:44;16.70;;;8.85;;
29568;SDS011;16501;51.462;14.346;2023-01-29T10:37:17;19.83;;;7.90;;
29568;SDS011;16501;51.462;14.346;2023-01-29T10:39:48;16.50;;;9.00;;
29568;SDS011;16501;51.462;14.346;2023-01-29T10:47:56;17.35;;;8.95;;
29568;SDS011;16501;51.462;14.346;2023-01-29T10:51:01;68.53;;;29.45;;
29568;SDS011;16501;51.462;14.346;2023-01-29T11:02:23;76.28;;;33.15;;
29568;SDS011;16501;51.462;14.346;2023-01-29T11:04:49;47.47;;;22.85;;
29568;SDS011;16501;51.462;14.346;2023-01-29T11:07:17;32.85;;;17.20;;
29568;SDS011;16501;51.462;14.346;2023-01-29T11:12:30;18.85;;;9.65;;
29568;SDS011;16501;51.462;14.346;2023-01-29T11:15:02;23.27;;;12.75;;
29568;SDS011;16501;51.462;14.346;2023-01-29T11:17:36;23.08;;;11.63;;
29568;SDS011;16501;51.462;14.346;2023-01-29T11:20:02;18.20;;;9.68;;
29568;SDS011;16501;51.462;14.346;2023-01-29T11:22:30;19.63;;;11.23;;
29568;SDS011;16501;51.462;14.346;2023-01-29T11:25:15;16.52;;;9.73;;
29568;SDS011;16501;51.462;14.346;2023-01-29T11:27:46;17.48;;;9.45;;
29568;SDS011;16501;51.462;14.346;2023-01-29T11:30:14;16.40;;;9.73;;
29568;SDS011;16501;51.462;14.346;2023-01-29T11:32:43;55.60;;;20.80;;
29568;SDS011;16501;51.462;14.346;2023-01-29T11:37:39;49.20;;;19.52;;
29568;SDS011;16501;51.462;14.346;2023-01-29T11:42:43;45.08;;;16.63;;
29568;SDS011;16501;51.462;14.346;2023-01-29T11:47:43;34.60;;;14.95;;
29568;SDS011;16501;51.462;14.346;2023-01-29T11:50:35;114.85;;;40.08;;
29568;SDS011;16501;51.462;14.346;2023-01-29T11:53:01;87.72;;;34.20;;
29568;SDS011;16501;51.462;14.346;2023-01-29T11:55:29;60.15;;;28.63;;
29568;SDS011;16501;51.462;14.346;2023-01-29T11:58:04;70.03;;;33.35;;
29568;SDS011;16501;51.462;14.346;2023-01-29T12:00:37;73.45;;;36.42;;
29568;SDS011;16501;51.462;14.346;2023-01-29T12:03:06;46.67;;;24.88;;
29568;SDS011;16501;51.462;14.346;2023-01-29T12:08:42;27.92;;;14.00;;
29568;SDS011;16501;51.462;14.346;2023-01-29T12:11:09;16.75;;;10.02;;
29568;SDS011;16501;51.462;14.346;2023-01-29T12:18:43;15.88;;;9.65;;
29568;SDS011;16501;51.462;14.346;2023-01-29T12:21:22;18.67;;;10.65;;
29568;SDS011;16501;51.462;14.346;2023-01-29T12:23:56;22.80;;;10.80;;
29568;SDS011;16501;51.462;14.346;2023-01-29T12:26:44;17.35;;;9.35;;
29568;SDS011;16501;51.462;14.346;2023-01-29T12:29:18;21.55;;;12.00;;
29568;SDS011;16501;51.462;14.346;2023-01-29T12:31:58;20.63;;;10.68;;
29568;SDS011;16501;51.462;14.346;2023-01-29T12:34:26;18.08;;;11.18;;
29568;SDS011;16501;51.462;14.346;2023-01-29T12:37:02;19.02;;;9.77;;
29568;SDS011;16501;51.462;14.346;2023-01-29T12:39:35;18.85;;;9.57;;
29568;SDS011;16501;51.462;14.346;2023-01-29T12:42:02;17.50;;;9.38;;
29568;SDS011;16501;51.462;14.346;2023-01-29T12:47:06;19.73;;;9.90;;
29568;SDS011;16501;51.462;14.346;2023-01-29T12:49:36;19.30;;;10.13;;
29568;SDS011;16501;51.462;14.346;2023-01-29T12:54:46;20.15;;;10.15;;
29568;SDS011;16501;51.462;14.346;2023-01-29T12:57:22;17.92;;;9.93;;
29568;SDS011;16501;51.462;14.346;2023-01-29T13:00:04;19.35;;;9.70;;
29568;SDS011;16501;51.462;14.346;2023-01-29T13:02:53;15.52;;;9.00;;
29568;SDS011;16501;51.462;14.346;2023-01-29T13:05:30;18.95;;;10.18;;
29568;SDS011;16501;51.462;14.346;2023-01-29T13:08:22;19.38;;;10.10;;
29568;SDS011;16501;51.462;14.346;2023-01-29T13:10:53;18.15;;;9.48;;
29568;SDS011;16501;51.462;14.346;2023-01-29T13:13:26;18.45;;;9.75;;
29568;SDS011;16501;51.462;14.346;2023-01-29T13:15:59;20.52;;;9.63;;
29568;SDS011;16501;51.462;14.346;2023-01-29T13:21:21;63.65;;;22.17;;
29568;SDS011;16501;51.462;14.346;2023-01-29T13:23:53;57.28;;;21.77;;
29568;SDS011;16501;51.462;14.346;2023-01-29T13:26:22;193.45;;;55.55;;
29568;SDS011;16501;51.462;14.346;2023-01-29T13:28:48;180.40;;;56.30;;
29568;SDS011;16501;51.462;14.346;2023-01-29T13:31:34;119.88;;;37.85;;
29568;SDS011;16501;51.462;14.346;2023-01-29T13:34:15;52.47;;;21.13;;
29568;SDS011;16501;51.462;14.346;2023-01-29T13:37:15;27.25;;;12.75;;
29568;SDS011;16501;51.462;14.346;2023-01-29T13:39:45;20.25;;;10.55;;
29568;SDS011;16501;51.462;14.346;2023-01-29T13:42:15;46.88;;;21.00;;
29568;SDS011;16501;51.462;14.346;2023-01-29T13:44:46;29.27;;;14.60;;
29568;SDS011;16501;51.462;14.346;2023-01-29T13:47:21;27.00;;;12.95;;
29568;SDS011;16501;51.462;14.346;2023-01-29T13:49:59;29.17;;;12.18;;
29568;SDS011;16501;51.462;14.346;2023-01-29T13:52:35;28.55;;;15.25;;
29568;SDS011;16501;51.462;14.346;2023-01-29T14:00:55;17.95;;;9.90;;
29568;SDS011;16501;51.462;14.346;2023-01-29T14:10:33;16.10;;;9.10;;
29568;SDS011;16501;51.462;14.346;2023-01-29T14:15:34;17.08;;;9.75;;
29568;SDS011;16501;51.462;14.346;2023-01-29T14:20:39;18.25;;;10.75;;
29568;SDS011;16501;51.462;14.346;2023-01-29T14:23:22;17.85;;;8.75;;
29568;SDS011;16501;51.462;14.346;2023-01-29T14:25:53;17.75;;;9.13;;
29568;SDS011;16501;51.462;14.346;2023-01-29T14:28:21;19.52;;;10.20;;
29568;SDS011;16501;51.462;14.346;2023-01-29T14:30:50;28.30;;;12.63;;
29568;SDS011;16501;51.462;14.346;2023-01-29T14:33:35;21.25;;;10.57;;
29568;SDS011;16501;51.462;14.346;2023-01-29T14:36:11;20.20;;;10.05;;
29568;SDS011;16501;51.462;14.346;2023-01-29T14:38:39;15.93;;;9.30;;
29568;SDS011;16501;51.462;14.346;2023-01-29T14:41:14;15.73;;;9.13;;
29568;SDS011;16501;51.462;14.346;2023-01-29T14:43:47;15.07;;;9.30;;
29568;SDS011;16501;51.462;14.346;2023-01-29T14:48:56;23.45;;;10.30;;
29568;SDS011;16501;51.462;14.346;2023-01-29T14:51:22;17.17;;;9.48;;
29568;SDS011;16501;51.462;14.346;2023-01-29T14:56:26;18.05;;;9.88;;
29568;SDS011;16501;51.462;14.346;2023-01-29T14:59:02;18.25;;;9.25;;
29568;SDS011;16501;51.462;14.346;2023-01-29T15:01:37;17.63;;;9.07;;
29568;SDS011;16501;51.462;14.346;2023-01-29T15:04:04;18.52;;;10.60;;
29568;SDS011;16501;51.462;14.346;2023-01-29T15:09:16;12.52;;;8.40;;
29568;SDS011;16501;51.462;14.346;2023-01-29T15:11:50;20.08;;;9.32;;
29568;SDS011;16501;51.462;14.346;2023-01-29T15:14:31;20.17;;;9.05;;
29568;SDS011;16501;51.462;14.346;2023-01-29T15:19:56;20.05;;;8.95;;
29568;SDS011;16501;51.462;14.346;2023-01-29T15:22:22;24.10;;;13.02;;
29568;SDS011;16501;51.462;14.346;2023-01-29T15:25:08;22.95;;;10.80;;
29568;SDS011;16501;51.462;14.346;2023-01-29T15:27:41;20.38;;;10.75;;
29568;SDS011;16501;51.462;14.346;2023-01-29T15:30:11;18.60;;;9.73;;
29568;SDS011;16501;51.462;14.346;2023-01-29T15:35:07;15.38;;;8.65;;
29568;SDS011;16501;51.462;14.346;2023-01-29T15:37:35;16.70;;;10.27;;
29568;SDS011;16501;51.462;14.346;2023-01-29T15:40:02;18.13;;;8.30;;
29568;SDS011;16501;51.462;14.346;2023-01-29T15:42:40;15.23;;;9.43;;
29568;SDS011;16501;51.462;14.346;2023-01-29T15:48:11;17.85;;;8.88;;
29568;SDS011;16501;51.462;14.346;2023-01-29T15:50:41;18.92;;;9.27;;
29568;SDS011;16501;51.462;14.346;2023-01-29T15:53:17;19.05;;;9.95;;
29568;SDS011;16501;51.462;14.346;2023-01-29T15:55:47;15.40;;;9.80;;
29568;SDS011;16501;51.462;14.346;2023-01-29T15:58:19;20.08;;;10.57;;
29568;SDS011;16501;51.462;14.346;2023-01-29T16:00:53;19.25;;;11.32;;
29568;SDS011;16501;51.462;14.346;2023-01-29T16:03:24;19.60;;;11.07;;
29568;SDS011;16501;51.462;14.346;2023-01-29T16:05:52;22.27;;;9.98;;
29568;SDS011;16501;51.462;14.346;2023-01-29T16:08:21;17.58;;;9.88;;
29568;SDS011;16501;51.462;14.346;2023-01-29T16:10:50;23.52;;;10.13;;
29568;SDS011;16501;51.462;14.346;2023-01-29T16:13:23;25.42;;;9.63;;
29568;SDS011;16501;51.462;14.346;2023-01-29T16:18:38;24.90;;;11.40;;
29568;SDS011;16501;51.462;14.346;2023-01-29T16:21:07;15.10;;;8.57;;
29568;SDS011;16501;51.462;14.346;2023-01-29T16:23:44;18.83;;;9.48;;
29568;SDS011;16501;51.462;14.346;2023-01-29T16:26:22;18.95;;;8.88;;
29568;SDS011;16501;51.462;14.346;2023-01-29T16:28:50;13.73;;;8.25;;
29568;SDS011;16501;51.462;14.346;2023-01-29T16:31:24;17.05;;;9.18;;
29568;SDS011;16501;51.462;14.346;2023-01-29T16:33:52;19.55;;;9.85;;
29568;SDS011;16501;51.462;14.346;2023-01-29T16:36:25;16.30;;;8.65;;
29568;SDS011;16501;51.462;14.346;2023-01-29T16:38:53;18.67;;;9.02;;
29568;SDS011;16501;51.462;14.346;2023-01-29T16:43:49;16.33;;;9.40;;
29568;SDS011;16501;51.462;14.346;2023-01-29T16:48:56;15.27;;;9.30;;
29568;SDS011;16501;51.462;14.346;2023-01-29T16:51:23;21.38;;;10.13;;
29568;SDS011;16501;51.462;14.346;2023-01-29T16:56:27;19.27;;;10.88;;
29568;SDS011;16501;51.462;14.346;2023-01-29T16:58:55;20.85;;;9.63;;
29568;SDS011;16501;51.462;14.346;2023-01-29T17:01:22;17.58;;;9.38;;
29568;SDS011;16501;51.462;14.346;2023-01-29T17:03:53;15.27;;;9.10;;
29568;SDS011;16501;51.462;14.346;2023-01-29T17:06:36;26.25;;;11.10;;
29568;SDS011;16501;51.462;14.346;2023-01-29T17:09:04;18.13;;;8.55;;
29568;SDS011;16501;51.462;14.346;2023-01-29T17:11:37;16.85;;;8.82;;
29568;SDS011;16501;51.462;14.346;2023-01-29T17:14:06;19.23;;;9.30;;